sensor_id;sensor_type;location;lat;lon;timestamp;P1;durP1;ratioP1;P2;durP2;ratioP2
6434;SDS011;3250;42.694;23.278;2023-07-31T00:01:17;4.00;;;2.83;;
6434;SDS011;3250;42.694;23.278;2023-07-31T00:03:42;3.47;;;3.00;;
6434;SDS011;3250;42.694;23.278;2023-07-31T00:06:08;5.60;;;3.17;;
6434;SDS011;3250;42.694;23.278;2023-07-31T00:08:33;3.53;;;2.40;;
6434;SDS011;3250;42.694;23.278;2023-07-31T00:10:59;2.83;;;2.63;;
6434;SDS011;3250;42.694;23.278;2023-07-31T00:13:24;2.90;;;2.50;;
6434;SDS011;3250;42.694;23.278;2023-07-31T00:15:49;4.93;;;2.70;;
6434;SDS011;3250;42.694;23.278;2023-07-31T00:18:15;2.92;;;2.40;;
6434;SDS011;3250;42.694;23.278;2023-07-31T00:20:40;3.90;;;2.60;;
6434;SDS011;3250;42.694;23.278;2023-07-31T00:23:06;4.93;;;2.70;;
6434;SDS011;3250;42.694;23.278;2023-07-31T00:25:31;4.33;;;2.77;;
6434;SDS011;3250;42.694;23.278;2023-07-31T00:27:57;4.40;;;3.30;;
6434;SDS011;3250;42.694;23.278;2023-07-31T00:30:22;3.42;;;2.63;;
6434;SDS011;3250;42.694;23.278;2023-07-31T00:32:50;4.25;;;3.20;;
6434;SDS011;3250;42.694;23.278;2023-07-31T00:35:15;3.90;;;3.08;;
6434;SDS011;3250;42.694;23.278;2023-07-31T00:37:41;3.83;;;3.10;;
6434;SDS011;3250;42.694;23.278;2023-07-31T00:40:06;3.20;;;2.85;;
6434;SDS011;3250;42.694;23.278;2023-07-31T00:42:32;3.33;;;3.03;;
6434;SDS011;3250;42.694;23.278;2023-07-31T00:44:58;4.63;;;3.10;;
6434;SDS011;3250;42.694;23.278;2023-07-31T00:47:23;4.70;;;4.23;;
6434;SDS011;3250;42.694;23.278;2023-07-31T00:49:48;6.93;;;4.90;;
6434;SDS011;3250;42.694;23.278;2023-07-31T00:52:14;5.25;;;4.68;;
6434;SDS011;3250;42.694;23.278;2023-07-31T00:54:39;5.82;;;4.00;;
6434;SDS011;3250;42.694;23.278;2023-07-31T00:57:05;4.88;;;4.38;;
6434;SDS011;3250;42.694;23.278;2023-07-31T00:59:32;6.07;;;4.65;;
6434;SDS011;3250;42.694;23.278;2023-07-31T01:01:58;12.40;;;9.77;;
6434;SDS011;3250;42.694;23.278;2023-07-31T01:04:23;28.27;;;23.90;;
6434;SDS011;3250;42.694;23.278;2023-07-31T01:07:11;28.33;;;23.17;;
6434;SDS011;3250;42.694;23.278;2023-07-31T01:12:07;30.05;;;23.88;;
6434;SDS011;3250;42.694;23.278;2023-07-31T01:14:34;14.50;;;13.00;;
6434;SDS011;3250;42.694;23.278;2023-07-31T01:17:00;15.87;;;14.23;;
6434;SDS011;3250;42.694;23.278;2023-07-31T01:19:25;20.17;;;12.98;;
6434;SDS011;3250;42.694;23.278;2023-07-31T01:27:34;45.03;;;35.50;;
6434;SDS011;3250;42.694;23.278;2023-07-31T01:30:10;40.58;;;35.17;;
6434;SDS011;3250;42.694;23.278;2023-07-31T01:32:42;29.08;;;25.75;;
6434;SDS011;3250;42.694;23.278;2023-07-31T01:35:09;36.40;;;31.48;;
6434;SDS011;3250;42.694;23.278;2023-07-31T01:37:35;41.65;;;32.60;;
6434;SDS011;3250;42.694;23.278;2023-07-31T01:40:00;53.17;;;43.50;;
6434;SDS011;3250;42.694;23.278;2023-07-31T01:42:26;60.97;;;48.30;;
6434;SDS011;3250;42.694;23.278;2023-07-31T01:44:51;57.73;;;49.10;;
6434;SDS011;3250;42.694;23.278;2023-07-31T01:47:16;50.87;;;43.27;;
6434;SDS011;3250;42.694;23.278;2023-07-31T01:49:42;39.53;;;33.55;;
6434;SDS011;3250;42.694;23.278;2023-07-31T01:52:07;27.15;;;20.00;;
6434;SDS011;3250;42.694;23.278;2023-07-31T01:54:33;20.10;;;16.50;;
6434;SDS011;3250;42.694;23.278;2023-07-31T01:56:58;17.97;;;14.93;;
6434;SDS011;3250;42.694;23.278;2023-07-31T01:59:24;18.17;;;15.52;;
6434;SDS011;3250;42.694;23.278;2023-07-31T02:01:49;18.97;;;15.23;;
6434;SDS011;3250;42.694;23.278;2023-07-31T02:04:14;20.60;;;13.32;;
6434;SDS011;3250;42.694;23.278;2023-07-31T02:06:40;16.23;;;14.13;;
6434;SDS011;3250;42.694;23.278;2023-07-31T02:09:05;17.55;;;13.70;;
6434;SDS011;3250;42.694;23.278;2023-07-31T02:11:31;15.70;;;12.82;;
6434;SDS011;3250;42.694;23.278;2023-07-31T02:13:56;17.45;;;13.02;;
6434;SDS011;3250;42.694;23.278;2023-07-31T02:16:22;16.73;;;14.65;;
6434;SDS011;3250;42.694;23.278;2023-07-31T02:18:47;16.02;;;14.32;;
6434;SDS011;3250;42.694;23.278;2023-07-31T02:21:12;16.90;;;14.90;;
6434;SDS011;3250;42.694;23.278;2023-07-31T02:23:38;16.80;;;14.97;;
6434;SDS011;3250;42.694;23.278;2023-07-31T02:26:03;16.20;;;14.05;;
6434;SDS011;3250;42.694;23.278;2023-07-31T02:28:29;17.57;;;15.13;;
6434;SDS011;3250;42.694;23.278;2023-07-31T02:30:54;16.80;;;13.85;;
6434;SDS011;3250;42.694;23.278;2023-07-31T02:33:20;18.00;;;14.13;;
6434;SDS011;3250;42.694;23.278;2023-07-31T02:35:45;18.87;;;14.80;;
6434;SDS011;3250;42.694;23.278;2023-07-31T02:38:11;19.17;;;13.38;;
6434;SDS011;3250;42.694;23.278;2023-07-31T02:40:36;16.10;;;13.40;;
6434;SDS011;3250;42.694;23.278;2023-07-31T02:43:01;18.40;;;13.35;;
6434;SDS011;3250;42.694;23.278;2023-07-31T02:45:27;20.77;;;13.82;;
6434;SDS011;3250;42.694;23.278;2023-07-31T02:47:52;17.70;;;15.20;;
6434;SDS011;3250;42.694;23.278;2023-07-31T02:50:18;17.20;;;14.40;;
6434;SDS011;3250;42.694;23.278;2023-07-31T02:52:43;16.48;;;14.25;;
6434;SDS011;3250;42.694;23.278;2023-07-31T02:55:08;17.30;;;12.98;;
6434;SDS011;3250;42.694;23.278;2023-07-31T02:57:34;14.43;;;12.52;;
6434;SDS011;3250;42.694;23.278;2023-07-31T02:59:59;16.10;;;12.68;;
6434;SDS011;3250;42.694;23.278;2023-07-31T03:02:24;14.15;;;12.13;;
6434;SDS011;3250;42.694;23.278;2023-07-31T03:04:50;19.15;;;13.70;;
6434;SDS011;3250;42.694;23.278;2023-07-31T03:07:15;16.77;;;14.50;;
6434;SDS011;3250;42.694;23.278;2023-07-31T03:09:41;20.30;;;14.30;;
6434;SDS011;3250;42.694;23.278;2023-07-31T03:12:06;17.17;;;12.73;;
6434;SDS011;3250;42.694;23.278;2023-07-31T03:14:33;16.05;;;13.20;;
6434;SDS011;3250;42.694;23.278;2023-07-31T03:16:58;17.42;;;13.40;;
6434;SDS011;3250;42.694;23.278;2023-07-31T03:19:24;16.33;;;14.00;;
6434;SDS011;3250;42.694;23.278;2023-07-31T03:21:49;19.00;;;15.50;;
6434;SDS011;3250;42.694;23.278;2023-07-31T03:24:15;17.13;;;14.82;;
6434;SDS011;3250;42.694;23.278;2023-07-31T03:26:40;16.40;;;13.38;;
6434;SDS011;3250;42.694;23.278;2023-07-31T03:29:06;19.23;;;13.63;;
6434;SDS011;3250;42.694;23.278;2023-07-31T03:31:32;16.60;;;13.10;;
6434;SDS011;3250;42.694;23.278;2023-07-31T03:33:58;18.93;;;14.63;;
6434;SDS011;3250;42.694;23.278;2023-07-31T03:36:23;18.67;;;15.80;;
6434;SDS011;3250;42.694;23.278;2023-07-31T03:38:49;22.02;;;14.65;;
6434;SDS011;3250;42.694;23.278;2023-07-31T03:41:14;17.15;;;13.82;;
6434;SDS011;3250;42.694;23.278;2023-07-31T03:43:40;21.53;;;15.43;;
6434;SDS011;3250;42.694;23.278;2023-07-31T03:46:05;20.30;;;15.50;;
6434;SDS011;3250;42.694;23.278;2023-07-31T03:48:30;21.03;;;16.67;;
6434;SDS011;3250;42.694;23.278;2023-07-31T03:50:56;19.83;;;16.73;;
6434;SDS011;3250;42.694;23.278;2023-07-31T03:53:21;21.73;;;17.37;;
6434;SDS011;3250;42.694;23.278;2023-07-31T03:55:47;19.65;;;14.68;;
6434;SDS011;3250;42.694;23.278;2023-07-31T03:58:12;17.05;;;13.75;;
6434;SDS011;3250;42.694;23.278;2023-07-31T04:00:39;23.77;;;19.03;;
6434;SDS011;3250;42.694;23.278;2023-07-31T04:03:05;22.48;;;18.90;;
6434;SDS011;3250;42.694;23.278;2023-07-31T04:05:31;22.60;;;18.53;;
6434;SDS011;3250;42.694;23.278;2023-07-31T04:07:57;18.83;;;14.93;;
6434;SDS011;3250;42.694;23.278;2023-07-31T04:10:23;22.23;;;15.85;;
6434;SDS011;3250;42.694;23.278;2023-07-31T04:12:48;24.30;;;16.00;;
6434;SDS011;3250;42.694;23.278;2023-07-31T04:15:14;19.80;;;15.77;;
6434;SDS011;3250;42.694;23.278;2023-07-31T04:17:39;22.20;;;15.75;;
6434;SDS011;3250;42.694;23.278;2023-07-31T04:20:05;23.42;;;17.45;;
6434;SDS011;3250;42.694;23.278;2023-07-31T04:22:31;19.70;;;14.68;;
6434;SDS011;3250;42.694;23.278;2023-07-31T04:24:56;20.60;;;15.90;;
6434;SDS011;3250;42.694;23.278;2023-07-31T04:27:21;22.13;;;16.53;;
6434;SDS011;3250;42.694;23.278;2023-07-31T04:29:47;23.90;;;18.53;;
6434;SDS011;3250;42.694;23.278;2023-07-31T04:32:12;20.95;;;15.68;;
6434;SDS011;3250;42.694;23.278;2023-07-31T04:34:38;25.52;;;16.15;;
6434;SDS011;3250;42.694;23.278;2023-07-31T04:37:03;24.88;;;16.23;;
6434;SDS011;3250;42.694;23.278;2023-07-31T04:39:29;21.17;;;14.82;;
6434;SDS011;3250;42.694;23.278;2023-07-31T04:41:54;23.52;;;15.30;;
6434;SDS011;3250;42.694;23.278;2023-07-31T04:44:20;21.83;;;15.07;;
6434;SDS011;3250;42.694;23.278;2023-07-31T04:46:45;19.08;;;14.02;;
6434;SDS011;3250;42.694;23.278;2023-07-31T04:49:11;20.17;;;15.00;;
6434;SDS011;3250;42.694;23.278;2023-07-31T04:51:37;20.92;;;14.68;;
6434;SDS011;3250;42.694;23.278;2023-07-31T04:54:02;19.67;;;14.23;;
6434;SDS011;3250;42.694;23.278;2023-07-31T04:56:27;18.65;;;13.98;;
6434;SDS011;3250;42.694;23.278;2023-07-31T04:58:53;16.77;;;12.85;;
6434;SDS011;3250;42.694;23.278;2023-07-31T05:01:18;16.05;;;13.13;;
6434;SDS011;3250;42.694;23.278;2023-07-31T05:03:44;15.90;;;13.38;;
6434;SDS011;3250;42.694;23.278;2023-07-31T05:06:09;18.58;;;13.70;;
6434;SDS011;3250;42.694;23.278;2023-07-31T05:08:34;18.02;;;13.25;;
6434;SDS011;3250;42.694;23.278;2023-07-31T05:11:00;16.55;;;12.50;;
6434;SDS011;3250;42.694;23.278;2023-07-31T05:13:25;12.80;;;10.52;;
6434;SDS011;3250;42.694;23.278;2023-07-31T05:15:50;12.52;;;10.98;;
6434;SDS011;3250;42.694;23.278;2023-07-31T05:18:16;13.25;;;10.90;;
6434;SDS011;3250;42.694;23.278;2023-07-31T05:20:41;13.57;;;9.63;;
6434;SDS011;3250;42.694;23.278;2023-07-31T05:23:07;16.30;;;10.90;;
6434;SDS011;3250;42.694;23.278;2023-07-31T05:25:32;11.15;;;9.40;;
6434;SDS011;3250;42.694;23.278;2023-07-31T05:27:57;14.13;;;11.20;;
6434;SDS011;3250;42.694;23.278;2023-07-31T05:30:23;13.80;;;10.02;;
6434;SDS011;3250;42.694;23.278;2023-07-31T05:32:48;12.02;;;9.63;;
6434;SDS011;3250;42.694;23.278;2023-07-31T05:35:14;12.85;;;9.30;;
6434;SDS011;3250;42.694;23.278;2023-07-31T05:37:39;8.10;;;7.30;;
6434;SDS011;3250;42.694;23.278;2023-07-31T05:40:05;8.75;;;7.85;;
6434;SDS011;3250;42.694;23.278;2023-07-31T05:42:30;9.55;;;7.63;;
6434;SDS011;3250;42.694;23.278;2023-07-31T05:44:56;9.45;;;7.22;;
6434;SDS011;3250;42.694;23.278;2023-07-31T05:47:23;6.70;;;5.97;;
6434;SDS011;3250;42.694;23.278;2023-07-31T05:49:48;7.57;;;6.65;;
6434;SDS011;3250;42.694;23.278;2023-07-31T05:52:14;9.60;;;6.63;;
6434;SDS011;3250;42.694;23.278;2023-07-31T05:54:41;8.43;;;6.07;;
6434;SDS011;3250;42.694;23.278;2023-07-31T05:57:07;7.38;;;5.97;;
6434;SDS011;3250;42.694;23.278;2023-07-31T05:59:32;7.70;;;5.15;;
6434;SDS011;3250;42.694;23.278;2023-07-31T06:01:58;6.18;;;4.68;;
6434;SDS011;3250;42.694;23.278;2023-07-31T06:04:24;5.20;;;4.50;;
6434;SDS011;3250;42.694;23.278;2023-07-31T06:06:50;6.70;;;4.03;;
6434;SDS011;3250;42.694;23.278;2023-07-31T06:09:16;4.72;;;4.30;;
6434;SDS011;3250;42.694;23.278;2023-07-31T06:11:42;5.05;;;4.22;;
6434;SDS011;3250;42.694;23.278;2023-07-31T06:14:08;6.50;;;4.13;;
6434;SDS011;3250;42.694;23.278;2023-07-31T06:16:33;4.72;;;3.72;;
6434;SDS011;3250;42.694;23.278;2023-07-31T06:19:02;4.70;;;3.75;;
6434;SDS011;3250;42.694;23.278;2023-07-31T06:21:27;4.03;;;3.63;;
6434;SDS011;3250;42.694;23.278;2023-07-31T06:23:53;4.90;;;3.60;;
6434;SDS011;3250;42.694;23.278;2023-07-31T06:26:18;6.10;;;3.53;;
6434;SDS011;3250;42.694;23.278;2023-07-31T06:28:43;4.30;;;3.75;;
6434;SDS011;3250;42.694;23.278;2023-07-31T06:31:09;5.43;;;3.72;;
6434;SDS011;3250;42.694;23.278;2023-07-31T06:33:35;5.15;;;3.72;;
6434;SDS011;3250;42.694;23.278;2023-07-31T06:36:00;6.95;;;4.00;;
6434;SDS011;3250;42.694;23.278;2023-07-31T06:38:29;4.65;;;3.40;;
6434;SDS011;3250;42.694;23.278;2023-07-31T06:40:54;4.07;;;3.30;;
6434;SDS011;3250;42.694;23.278;2023-07-31T06:43:22;4.25;;;3.08;;
6434;SDS011;3250;42.694;23.278;2023-07-31T06:45:47;3.88;;;3.42;;
6434;SDS011;3250;42.694;23.278;2023-07-31T06:48:16;6.20;;;3.63;;
6434;SDS011;3250;42.694;23.278;2023-07-31T06:50:41;3.30;;;3.00;;
6434;SDS011;3250;42.694;23.278;2023-07-31T06:53:07;4.20;;;3.13;;
6434;SDS011;3250;42.694;23.278;2023-07-31T06:55:32;5.15;;;3.03;;
6434;SDS011;3250;42.694;23.278;2023-07-31T06:57:58;4.22;;;2.67;;
6434;SDS011;3250;42.694;23.278;2023-07-31T07:00:23;5.60;;;2.95;;
6434;SDS011;3250;42.694;23.278;2023-07-31T07:02:49;5.32;;;2.97;;
6434;SDS011;3250;42.694;23.278;2023-07-31T07:05:14;3.85;;;2.60;;
6434;SDS011;3250;42.694;23.278;2023-07-31T07:07:41;5.18;;;3.95;;
6434;SDS011;3250;42.694;23.278;2023-07-31T07:10:07;3.53;;;2.85;;
6434;SDS011;3250;42.694;23.278;2023-07-31T07:12:33;8.73;;;4.72;;
6434;SDS011;3250;42.694;23.278;2023-07-31T07:14:59;3.45;;;2.60;;
6434;SDS011;3250;42.694;23.278;2023-07-31T07:17:26;2.72;;;2.22;;
6434;SDS011;3250;42.694;23.278;2023-07-31T07:19:52;3.70;;;2.40;;
6434;SDS011;3250;42.694;23.278;2023-07-31T07:22:17;2.42;;;2.22;;
6434;SDS011;3250;42.694;23.278;2023-07-31T07:24:43;3.45;;;2.63;;
6434;SDS011;3250;42.694;23.278;2023-07-31T07:27:09;3.40;;;3.05;;
6434;SDS011;3250;42.694;23.278;2023-07-31T07:29:37;7.10;;;3.28;;
6434;SDS011;3250;42.694;23.278;2023-07-31T07:32:03;7.55;;;2.83;;
6434;SDS011;3250;42.694;23.278;2023-07-31T07:34:29;4.50;;;2.38;;
6434;SDS011;3250;42.694;23.278;2023-07-31T07:36:54;2.95;;;2.70;;
6434;SDS011;3250;42.694;23.278;2023-07-31T07:39:20;6.63;;;3.05;;
6434;SDS011;3250;42.694;23.278;2023-07-31T07:41:46;5.25;;;2.40;;
6434;SDS011;3250;42.694;23.278;2023-07-31T07:44:12;3.63;;;2.33;;
6434;SDS011;3250;42.694;23.278;2023-07-31T07:46:38;3.17;;;2.53;;
6434;SDS011;3250;42.694;23.278;2023-07-31T07:49:04;4.07;;;2.05;;
6434;SDS011;3250;42.694;23.278;2023-07-31T07:51:29;4.80;;;1.90;;
6434;SDS011;3250;42.694;23.278;2023-07-31T07:53:56;3.83;;;2.15;;
6434;SDS011;3250;42.694;23.278;2023-07-31T07:56:23;3.42;;;2.10;;
6434;SDS011;3250;42.694;23.278;2023-07-31T07:58:49;2.95;;;2.45;;
6434;SDS011;3250;42.694;23.278;2023-07-31T08:01:15;6.88;;;2.22;;
6434;SDS011;3250;42.694;23.278;2023-07-31T08:03:41;2.88;;;2.40;;
6434;SDS011;3250;42.694;23.278;2023-07-31T08:06:06;5.13;;;2.90;;
6434;SDS011;3250;42.694;23.278;2023-07-31T08:08:34;2.90;;;2.15;;
6434;SDS011;3250;42.694;23.278;2023-07-31T08:11:00;3.60;;;2.30;;
6434;SDS011;3250;42.694;23.278;2023-07-31T08:13:25;4.78;;;2.33;;
6434;SDS011;3250;42.694;23.278;2023-07-31T08:15:50;3.38;;;2.60;;
6434;SDS011;3250;42.694;23.278;2023-07-31T08:18:16;3.35;;;2.75;;
6434;SDS011;3250;42.694;23.278;2023-07-31T08:20:42;2.20;;;2.00;;
6434;SDS011;3250;42.694;23.278;2023-07-31T08:23:08;4.47;;;2.83;;
6434;SDS011;3250;42.694;23.278;2023-07-31T08:25:34;5.28;;;3.45;;
6434;SDS011;3250;42.694;23.278;2023-07-31T08:28:01;5.35;;;3.35;;
6434;SDS011;3250;42.694;23.278;2023-07-31T08:30:26;4.13;;;3.30;;
6434;SDS011;3250;42.694;23.278;2023-07-31T08:32:52;6.75;;;2.70;;
6434;SDS011;3250;42.694;23.278;2023-07-31T08:35:17;2.97;;;2.38;;
6434;SDS011;3250;42.694;23.278;2023-07-31T08:37:43;2.58;;;2.30;;
6434;SDS011;3250;42.694;23.278;2023-07-31T08:40:08;3.17;;;2.28;;
6434;SDS011;3250;42.694;23.278;2023-07-31T08:42:41;6.22;;;2.40;;
6434;SDS011;3250;42.694;23.278;2023-07-31T08:45:08;3.03;;;1.80;;
6434;SDS011;3250;42.694;23.278;2023-07-31T08:47:34;4.25;;;2.33;;
6434;SDS011;3250;42.694;23.278;2023-07-31T08:50:00;5.50;;;2.55;;
6434;SDS011;3250;42.694;23.278;2023-07-31T08:52:26;11.00;;;2.40;;
6434;SDS011;3250;42.694;23.278;2023-07-31T08:54:52;4.35;;;2.13;;
6434;SDS011;3250;42.694;23.278;2023-07-31T08:57:17;2.53;;;2.05;;
6434;SDS011;3250;42.694;23.278;2023-07-31T08:59:43;4.32;;;2.10;;
6434;SDS011;3250;42.694;23.278;2023-07-31T09:02:09;8.35;;;2.15;;
6434;SDS011;3250;42.694;23.278;2023-07-31T09:04:35;3.15;;;1.98;;
6434;SDS011;3250;42.694;23.278;2023-07-31T09:07:01;5.78;;;2.28;;
6434;SDS011;3250;42.694;23.278;2023-07-31T09:09:30;2.30;;;2.10;;
6434;SDS011;3250;42.694;23.278;2023-07-31T09:11:59;4.45;;;2.38;;
6434;SDS011;3250;42.694;23.278;2023-07-31T09:14:26;3.50;;;2.40;;
6434;SDS011;3250;42.694;23.278;2023-07-31T09:16:52;7.63;;;2.92;;
6434;SDS011;3250;42.694;23.278;2023-07-31T09:19:25;4.47;;;2.10;;
6434;SDS011;3250;42.694;23.278;2023-07-31T09:21:55;2.95;;;2.10;;
6434;SDS011;3250;42.694;23.278;2023-07-31T09:24:27;4.18;;;2.58;;
6434;SDS011;3250;42.694;23.278;2023-07-31T09:26:54;6.53;;;2.60;;
6434;SDS011;3250;42.694;23.278;2023-07-31T09:29:21;3.88;;;2.50;;
6434;SDS011;3250;42.694;23.278;2023-07-31T09:31:47;2.88;;;2.58;;
6434;SDS011;3250;42.694;23.278;2023-07-31T09:34:14;2.78;;;2.47;;
6434;SDS011;3250;42.694;23.278;2023-07-31T09:36:40;5.32;;;3.15;;
6434;SDS011;3250;42.694;23.278;2023-07-31T09:39:11;2.75;;;2.20;;
6434;SDS011;3250;42.694;23.278;2023-07-31T09:41:42;5.28;;;2.35;;
6434;SDS011;3250;42.694;23.278;2023-07-31T09:44:12;10.77;;;2.30;;
6434;SDS011;3250;42.694;23.278;2023-07-31T09:46:38;5.97;;;2.25;;
6434;SDS011;3250;42.694;23.278;2023-07-31T09:49:07;5.93;;;2.67;;
6434;SDS011;3250;42.694;23.278;2023-07-31T09:51:34;2.45;;;2.17;;
6434;SDS011;3250;42.694;23.278;2023-07-31T09:54:04;5.35;;;2.30;;
6434;SDS011;3250;42.694;23.278;2023-07-31T09:56:42;2.75;;;2.03;;
6434;SDS011;3250;42.694;23.278;2023-07-31T09:59:16;3.45;;;2.40;;
6434;SDS011;3250;42.694;23.278;2023-07-31T10:01:44;2.90;;;1.90;;
6434;SDS011;3250;42.694;23.278;2023-07-31T10:04:11;4.13;;;2.55;;
6434;SDS011;3250;42.694;23.278;2023-07-31T10:06:38;3.78;;;2.83;;
6434;SDS011;3250;42.694;23.278;2023-07-31T10:09:06;7.53;;;2.65;;
6434;SDS011;3250;42.694;23.278;2023-07-31T10:11:34;6.30;;;2.15;;
6434;SDS011;3250;42.694;23.278;2023-07-31T10:14:07;3.95;;;2.13;;
6434;SDS011;3250;42.694;23.278;2023-07-31T10:16:34;6.03;;;1.98;;
6434;SDS011;3250;42.694;23.278;2023-07-31T10:19:01;2.05;;;1.85;;
6434;SDS011;3250;42.694;23.278;2023-07-31T10:21:27;6.63;;;2.22;;
6434;SDS011;3250;42.694;23.278;2023-07-31T10:23:53;2.25;;;1.80;;
6434;SDS011;3250;42.694;23.278;2023-07-31T10:26:20;1.83;;;1.65;;
6434;SDS011;3250;42.694;23.278;2023-07-31T10:28:48;3.17;;;1.77;;
6434;SDS011;3250;42.694;23.278;2023-07-31T10:31:16;1.90;;;1.80;;
6434;SDS011;3250;42.694;23.278;2023-07-31T10:33:42;5.85;;;2.13;;
6434;SDS011;3250;42.694;23.278;2023-07-31T10:36:12;1.98;;;1.77;;
6434;SDS011;3250;42.694;23.278;2023-07-31T10:38:44;2.78;;;1.50;;
6434;SDS011;3250;42.694;23.278;2023-07-31T10:41:11;2.72;;;1.90;;
6434;SDS011;3250;42.694;23.278;2023-07-31T10:43:37;2.10;;;1.90;;
6434;SDS011;3250;42.694;23.278;2023-07-31T10:46:06;3.38;;;2.42;;
6434;SDS011;3250;42.694;23.278;2023-07-31T10:48:39;2.25;;;1.80;;
6434;SDS011;3250;42.694;23.278;2023-07-31T10:51:07;3.38;;;1.98;;
6434;SDS011;3250;42.694;23.278;2023-07-31T10:53:37;5.22;;;1.90;;
6434;SDS011;3250;42.694;23.278;2023-07-31T10:56:05;1.52;;;1.42;;
6434;SDS011;3250;42.694;23.278;2023-07-31T10:58:32;2.00;;;1.80;;
6434;SDS011;3250;42.694;23.278;2023-07-31T11:00:59;2.55;;;1.77;;
6434;SDS011;3250;42.694;23.278;2023-07-31T11:03:26;1.65;;;1.50;;
6434;SDS011;3250;42.694;23.278;2023-07-31T11:06:09;4.60;;;1.98;;
6434;SDS011;3250;42.694;23.278;2023-07-31T11:08:35;2.90;;;1.70;;
6434;SDS011;3250;42.694;23.278;2023-07-31T11:11:07;2.75;;;2.40;;
6434;SDS011;3250;42.694;23.278;2023-07-31T11:13:42;2.80;;;1.70;;
6434;SDS011;3250;42.694;23.278;2023-07-31T11:16:08;1.95;;;1.75;;
6434;SDS011;3250;42.694;23.278;2023-07-31T11:18:34;4.70;;;1.98;;
6434;SDS011;3250;42.694;23.278;2023-07-31T11:21:00;2.35;;;1.90;;
6434;SDS011;3250;42.694;23.278;2023-07-31T11:23:26;3.80;;;2.10;;
6434;SDS011;3250;42.694;23.278;2023-07-31T11:25:51;3.35;;;1.63;;
6434;SDS011;3250;42.694;23.278;2023-07-31T11:28:18;2.20;;;1.90;;
6434;SDS011;3250;42.694;23.278;2023-07-31T11:30:44;1.50;;;1.40;;
6434;SDS011;3250;42.694;23.278;2023-07-31T11:33:11;2.38;;;1.85;;
6434;SDS011;3250;42.694;23.278;2023-07-31T11:35:41;1.83;;;1.70;;
6434;SDS011;3250;42.694;23.278;2023-07-31T11:40:50;6.40;;;2.30;;
6434;SDS011;3250;42.694;23.278;2023-07-31T11:43:17;1.85;;;1.75;;
6434;SDS011;3250;42.694;23.278;2023-07-31T11:45:52;2.55;;;1.88;;
6434;SDS011;3250;42.694;23.278;2023-07-31T11:48:30;3.85;;;2.47;;
6434;SDS011;3250;42.694;23.278;2023-07-31T11:51:01;5.72;;;2.65;;
6434;SDS011;3250;42.694;23.278;2023-07-31T11:53:29;6.93;;;2.30;;
6434;SDS011;3250;42.694;23.278;2023-07-31T11:55:59;4.35;;;2.53;;
6434;SDS011;3250;42.694;23.278;2023-07-31T11:58:25;4.07;;;2.50;;
6434;SDS011;3250;42.694;23.278;2023-07-31T12:00:52;8.57;;;3.30;;
6434;SDS011;3250;42.694;23.278;2023-07-31T12:03:18;3.33;;;3.03;;
6434;SDS011;3250;42.694;23.278;2023-07-31T12:05:43;5.30;;;3.20;;
6434;SDS011;3250;42.694;23.278;2023-07-31T12:08:10;5.07;;;3.38;;
6434;SDS011;3250;42.694;23.278;2023-07-31T12:10:39;4.72;;;3.85;;
6434;SDS011;3250;42.694;23.278;2023-07-31T12:13:09;6.53;;;3.72;;
6434;SDS011;3250;42.694;23.278;2023-07-31T12:15:39;7.40;;;4.43;;
6434;SDS011;3250;42.694;23.278;2023-07-31T12:18:07;4.50;;;4.10;;
6434;SDS011;3250;42.694;23.278;2023-07-31T12:20:45;6.35;;;4.10;;
6434;SDS011;3250;42.694;23.278;2023-07-31T12:23:20;6.25;;;4.75;;
6434;SDS011;3250;42.694;23.278;2023-07-31T12:28:41;4.25;;;3.50;;
6434;SDS011;3250;42.694;23.278;2023-07-31T12:31:09;4.40;;;3.03;;
6434;SDS011;3250;42.694;23.278;2023-07-31T12:33:37;3.88;;;3.15;;
6434;SDS011;3250;42.694;23.278;2023-07-31T12:36:14;6.28;;;3.30;;
6434;SDS011;3250;42.694;23.278;2023-07-31T12:38:42;4.93;;;3.70;;
6434;SDS011;3250;42.694;23.278;2023-07-31T12:41:09;12.73;;;4.10;;
6434;SDS011;3250;42.694;23.278;2023-07-31T12:43:39;8.00;;;4.18;;
6434;SDS011;3250;42.694;23.278;2023-07-31T12:46:06;5.05;;;4.38;;
6434;SDS011;3250;42.694;23.278;2023-07-31T12:48:36;4.75;;;4.30;;
6434;SDS011;3250;42.694;23.278;2023-07-31T12:51:02;6.38;;;3.92;;
6434;SDS011;3250;42.694;23.278;2023-07-31T12:53:28;4.45;;;3.80;;
6434;SDS011;3250;42.694;23.278;2023-07-31T12:55:55;4.40;;;4.00;;
6434;SDS011;3250;42.694;23.278;2023-07-31T12:58:21;4.18;;;3.78;;
6434;SDS011;3250;42.694;23.278;2023-07-31T13:00:49;5.38;;;4.35;;
6434;SDS011;3250;42.694;23.278;2023-07-31T13:03:15;4.72;;;4.15;;
6434;SDS011;3250;42.694;23.278;2023-07-31T13:05:40;5.15;;;4.30;;
6434;SDS011;3250;42.694;23.278;2023-07-31T13:08:06;5.13;;;4.55;;
6434;SDS011;3250;42.694;23.278;2023-07-31T13:10:33;7.82;;;4.38;;
6434;SDS011;3250;42.694;23.278;2023-07-31T13:13:00;4.03;;;3.63;;
6434;SDS011;3250;42.694;23.278;2023-07-31T13:15:26;5.43;;;4.47;;
6434;SDS011;3250;42.694;23.278;2023-07-31T13:17:51;8.73;;;7.55;;
6434;SDS011;3250;42.694;23.278;2023-07-31T13:20:18;11.35;;;4.18;;
6434;SDS011;3250;42.694;23.278;2023-07-31T13:22:45;3.75;;;3.45;;
6434;SDS011;3250;42.694;23.278;2023-07-31T13:25:11;5.93;;;3.67;;
6434;SDS011;3250;42.694;23.278;2023-07-31T13:27:39;4.03;;;3.58;;
6434;SDS011;3250;42.694;23.278;2023-07-31T13:30:05;3.85;;;3.30;;
6434;SDS011;3250;42.694;23.278;2023-07-31T13:32:31;4.15;;;3.72;;
6434;SDS011;3250;42.694;23.278;2023-07-31T13:34:57;8.07;;;4.07;;
6434;SDS011;3250;42.694;23.278;2023-07-31T13:37:22;4.03;;;3.38;;
6434;SDS011;3250;42.694;23.278;2023-07-31T13:39:47;4.32;;;3.40;;
6434;SDS011;3250;42.694;23.278;2023-07-31T13:42:13;4.10;;;3.17;;
6434;SDS011;3250;42.694;23.278;2023-07-31T13:44:41;4.40;;;3.55;;
6434;SDS011;3250;42.694;23.278;2023-07-31T13:47:07;3.70;;;3.30;;
6434;SDS011;3250;42.694;23.278;2023-07-31T13:49:33;8.20;;;2.83;;
6434;SDS011;3250;42.694;23.278;2023-07-31T13:52:00;5.97;;;2.90;;
6434;SDS011;3250;42.694;23.278;2023-07-31T13:54:25;6.82;;;3.20;;
6434;SDS011;3250;42.694;23.278;2023-07-31T13:56:52;6.30;;;3.42;;
6434;SDS011;3250;42.694;23.278;2023-07-31T13:59:19;7.93;;;3.22;;
6434;SDS011;3250;42.694;23.278;2023-07-31T14:01:45;3.58;;;3.28;;
6434;SDS011;3250;42.694;23.278;2023-07-31T14:04:11;4.40;;;3.10;;
6434;SDS011;3250;42.694;23.278;2023-07-31T14:06:37;3.47;;;3.17;;
6434;SDS011;3250;42.694;23.278;2023-07-31T14:09:02;3.63;;;3.33;;
6434;SDS011;3250;42.694;23.278;2023-07-31T14:11:28;6.72;;;3.22;;
6434;SDS011;3250;42.694;23.278;2023-07-31T14:13:55;6.03;;;3.15;;
6434;SDS011;3250;42.694;23.278;2023-07-31T14:16:21;6.15;;;3.38;;
6434;SDS011;3250;42.694;23.278;2023-07-31T14:18:47;4.18;;;3.78;;
6434;SDS011;3250;42.694;23.278;2023-07-31T14:21:14;4.25;;;3.60;;
6434;SDS011;3250;42.694;23.278;2023-07-31T14:23:40;6.28;;;3.17;;
6434;SDS011;3250;42.694;23.278;2023-07-31T14:26:11;4.43;;;2.95;;
6434;SDS011;3250;42.694;23.278;2023-07-31T14:28:36;3.92;;;3.10;;
6434;SDS011;3250;42.694;23.278;2023-07-31T14:31:02;3.13;;;2.83;;
6434;SDS011;3250;42.694;23.278;2023-07-31T14:33:28;4.50;;;3.00;;
6434;SDS011;3250;42.694;23.278;2023-07-31T14:35:53;3.50;;;3.20;;
6434;SDS011;3250;42.694;23.278;2023-07-31T14:38:19;4.45;;;2.85;;
6434;SDS011;3250;42.694;23.278;2023-07-31T14:40:46;4.07;;;2.88;;
6434;SDS011;3250;42.694;23.278;2023-07-31T14:43:11;3.50;;;3.20;;
6434;SDS011;3250;42.694;23.278;2023-07-31T14:45:37;3.63;;;3.10;;
6434;SDS011;3250;42.694;23.278;2023-07-31T14:48:02;7.53;;;2.75;;
6434;SDS011;3250;42.694;23.278;2023-07-31T14:50:29;4.00;;;2.90;;
6434;SDS011;3250;42.694;23.278;2023-07-31T14:52:56;4.15;;;3.20;;
6434;SDS011;3250;42.694;23.278;2023-07-31T14:55:23;3.97;;;2.80;;
6434;SDS011;3250;42.694;23.278;2023-07-31T14:57:48;4.97;;;2.92;;
6434;SDS011;3250;42.694;23.278;2023-07-31T15:00:14;5.28;;;2.63;;
6434;SDS011;3250;42.694;23.278;2023-07-31T15:02:40;5.30;;;2.70;;